KFMH/FMH METAR and TAF weather

Enter ICAO airport designator
Station Type Date Time Source
KFMH METAR 2019/05/21 20:35 UTC NOAA

KFMH 212035Z AUTO 29015G21KT 10SM CLR 21/03 A2978 RMK AO2


Station Type Date Time Source
KFMH Decoded METAR 2019/05/21 20:35 UTC NOAA

Otis Air National Guard Base, MA, United States (KFMH) 41-39N 070-31W
May 21, 2019 - 04:35 PM EDT / 2019.05.21 2035 UTC
Wind: from the WNW (290 degrees) at 17 MPH (15 KT) gusting to 24 MPH (21 KT):0
Visibility: 10 mile(s):0
Sky conditions: clear
Temperature: 69 F (21 C)
Dew Point: 37 F (3 C)
Relative Humidity: 30%
Pressure (altimeter): 29.78 in. Hg (1008 hPa)
ob: KFMH 212035Z AUTO 29015G21KT 10SM CLR 21/03 A2978 RMK AO2
cycle: 20

Station Type Date Time Source
KFMH TAF 2019/05/21 18:24 UTC NOAA

TAF KFMH 211723Z 2118/2218 30016G28KT P6SM FEW045
FM220200 31010G22KT P6SM SKC
FM220400 31010KT P6SM SKC
FM220800 33010G22KT P6SM FEW030
FM221400 36010G22KT P6SM SKC

Example: see airport list